Aeroporto :
LOGIN :

Iscrizione | Disclaimer

   EN    FR    IT 

 










Sommario :    VFR   VFR Marginale   IFR   IFR Intensivo   IFR Molto Intensivo
Visibilità : 
Base nubi : 
>= 8 km
>= 3000ft
5 / 8 km
1000 / 3000 ft
1500m / 5 km
500 / 1000 ft
800 / 1500m
200 / 500 ft
< 800m
< 200 ft
Simboli :   Temporali  Nebbia  Neve Forte  Precipitazioni Forti  Vento > 20 kt
SIGMETs :   Varie  Temporali  Ghiacco  Turbolenza  Onda orograficha  Ceneri Vulcaniche






- Altitudine del aeroporto : 313 ft
- Codice IATA : LEH


LFOH - Le Havre Octeville

ULTIMO METAR :
  • 290330Z AUTO 06016KT 9999 FEW028 SCT035 BKN056 05/00 Q1030

METARs OBSOLETI :
  • 290300Z AUTO 06016KT 9999 FEW030 SCT040 BKN054 05/00 Q1030
  • 290230Z AUTO 07019KT 9999 FEW020 SCT025 BKN034 05/01 Q1029
  • 290200Z AUTO 07017KT 9999 BKN028/// BKN041/// BKN050/// ///TCU 06/02 Q1029
  • 290130Z AUTO 06021KT 9999 FEW023 SCT040 BKN049 05/02 Q1029
  • 290100Z AUTO 06024G35KT 9999 -RA BKN032 05/02 Q1029

TAF AMD TAF LFOH
Valido dal 28 a 12 ore il 29 a 12 ore UTC


281209Z 2812/2912 04020G30KT 5000 BR BKN014
BECMG 2812/2814 7000 NSW SCT016
PROB40
TEMPO 2818/2912 04020G40KT
TEMPO 2900/2912 4000 SHRA
ATIS : +33 2 35 54 64 93



MetMap, La meteo Aeronautica in un colpo d'occhio ! - Copyright ORBIFLY Dicembre 2007 - Disclaimer

ORBIFLY MET'MAP TEAM :

Programmazione e sviluppo : Alexandra Zaïnal
Concezione : Baudouin d'Aumeries
Aiuto per la programmazione : Marc-Olivier Méhu
Supporto tecnico e logistico : Manuel Goepfert
Aiuto per la traduzione : Arnaldo La Scala

Contatto : metmap@orbifly.com




FONTI E CREDITI :

   NOAA